createdAt,value
2022-08-12T00:04:20.942Z,53.59
2022-08-12T00:09:38.660Z,54.49
2022-08-12T00:14:58.026Z,54.43
2022-08-12T00:20:18.410Z,55.17
2022-08-12T00:26:00.457Z,55.69
2022-08-12T00:31:13.226Z,56.24
2022-08-12T00:36:43.114Z,57.13
2022-08-12T00:42:05.505Z,57.97
2022-08-12T00:47:25.254Z,57.93
2022-08-12T00:52:30.987Z,58.90
2022-08-12T00:57:39.471Z,59.91
2022-08-12T01:02:48.502Z,61.17
2022-08-12T01:08:06.468Z,60.87
2022-08-12T01:13:19.419Z,62.42
2022-08-12T01:18:27.466Z,63.43
2022-08-12T01:23:48.794Z,63.29
2022-08-12T01:28:59.912Z,63.40
2022-08-12T01:34:28.373Z,63.55
2022-08-12T01:39:35.284Z,64.60
2022-08-12T01:44:42.986Z,66.31
2022-08-12T01:50:05.421Z,66.27
2022-08-12T01:55:13.040Z,66.14
2022-08-12T02:00:22.640Z,67.11
2022-08-12T02:06:05.000Z,66.62
2022-08-12T02:11:22.870Z,67.64
2022-08-12T02:16:53.283Z,70.34
2022-08-12T02:22:14.989Z,72.27
2022-08-12T02:27:22.571Z,74.10
2022-08-12T02:32:30.669Z,75.23
2022-08-12T02:37:38.861Z,77.11
2022-08-12T02:42:54.088Z,80.08
2022-08-12T02:48:09.235Z,81.45
2022-08-12T02:53:15.056Z,81.54
2022-08-12T02:58:21.362Z,82.38
2022-08-12T03:03:41.900Z,86.40
2022-08-12T03:08:53.887Z,87.30
2022-08-12T03:14:03.293Z,88.96
2022-08-12T03:19:12.358Z,91.34
2022-08-12T03:24:20.367Z,93.29
2022-08-12T03:29:30.628Z,95.28
2022-08-12T03:34:39.844Z,96.69
2022-08-12T03:39:46.980Z,98.79
2022-08-12T03:45:12.031Z,100.00
2022-08-12T03:56:02.198Z,100.00
2022-08-12T04:01:07.730Z,100.00
2022-08-12T04:06:16.372Z,100.00
2022-08-12T04:11:54.967Z,100.00
2022-08-12T04:17:00.081Z,100.00
2022-08-12T04:22:07.920Z,100.00
2022-08-12T04:27:14.412Z,100.00
2022-08-12T04:32:19.450Z,100.00
2022-08-12T04:37:27.027Z,100.00
2022-08-12T04:42:32.777Z,100.00
2022-08-12T04:47:38.319Z,100.00
2022-08-12T04:52:46.923Z,100.00
2022-08-12T04:57:53.562Z,100.00
2022-08-12T05:02:58.574Z,100.00
2022-08-12T05:08:08.033Z,100.00
2022-08-12T05:13:15.512Z,100.00
2022-08-12T05:18:20.906Z,100.00
2022-08-12T05:23:32.242Z,100.00
2022-08-12T05:28:37.664Z,100.00
2022-08-12T05:33:45.962Z,100.00
2022-08-12T05:38:59.730Z,100.00
2022-08-12T05:44:07.058Z,100.00
2022-08-12T05:49:12.351Z,100.00
2022-08-12T05:54:31.001Z,100.00
2022-08-12T05:59:46.652Z,100.00
2022-08-12T06:04:54.302Z,100.00
2022-08-12T06:10:02.320Z,100.00
2022-08-12T06:15:09.255Z,100.00
2022-08-12T06:20:27.228Z,100.00
2022-08-12T06:25:37.571Z,100.00
2022-08-12T06:30:42.565Z,100.00
2022-08-12T06:35:50.427Z,100.00
2022-08-12T06:41:13.280Z,100.00
2022-08-12T06:46:18.485Z,100.00
2022-08-12T06:51:23.596Z,100.00
2022-08-12T06:57:01.892Z,100.00
2022-08-12T07:01:57.104Z,100.00
2022-08-12T07:07:03.111Z,100.00
2022-08-12T07:12:20.058Z,97.84
2022-08-12T07:17:25.754Z,93.44
2022-08-12T07:22:31.050Z,86.39
2022-08-12T07:27:43.689Z,84.08
2022-08-12T07:32:49.912Z,74.63
2022-08-12T07:37:55.932Z,75.03
2022-08-12T07:43:03.882Z,67.52
2022-08-12T07:48:09.220Z,65.26
2022-08-12T07:53:14.192Z,63.98
2022-08-12T07:58:22.358Z,62.17
2022-08-12T08:03:28.307Z,62.61
2022-08-12T08:08:34.151Z,59.79
2022-08-12T08:13:42.449Z,56.69
2022-08-12T08:18:47.559Z,57.36
2022-08-12T08:24:05.457Z,57.17
2022-08-12T08:29:14.620Z,55.21
2022-08-12T08:34:33.668Z,52.33
2022-08-12T08:39:46.874Z,51.58
2022-08-12T08:44:58.969Z,50.19
2022-08-12T08:50:04.357Z,49.43
2022-08-12T08:55:10.429Z,49.38
2022-08-12T09:00:20.592Z,49.62
2022-08-12T09:05:26.070Z,50.06
2022-08-12T09:10:32.615Z,48.29
2022-08-12T09:15:41.839Z,45.81
2022-08-12T09:20:50.993Z,46.04
2022-08-12T09:25:56.309Z,45.50
2022-08-12T09:32:03.206Z,45.19
2022-08-12T09:36:58.364Z,45.93
2022-08-12T09:42:38.073Z,44.04
2022-08-12T09:47:37.768Z,43.65
2022-08-12T09:52:45.924Z,43.36
2022-08-12T09:58:07.565Z,43.02
2022-08-12T10:03:32.210Z,42.18
2022-08-12T10:08:40.237Z,42.29
2022-08-12T10:13:46.436Z,42.55
2022-08-12T10:18:57.541Z,41.89
2022-08-12T10:24:05.217Z,40.70
2022-08-12T10:30:03.582Z,41.05
2022-08-12T10:34:57.102Z,40.84
2022-08-12T10:40:09.575Z,41.01
2022-08-12T10:45:18.077Z,40.33
2022-08-12T10:50:28.638Z,39.44
2022-08-12T10:55:42.828Z,39.08
2022-08-12T11:01:25.611Z,39.26
2022-08-12T11:07:08.937Z,38.91
2022-08-12T11:12:35.771Z,39.74
2022-08-12T11:17:43.989Z,38.76
2022-08-12T11:22:41.021Z,38.89
2022-08-12T11:27:46.298Z,38.99
2022-08-12T11:32:56.222Z,38.64
2022-08-12T11:38:06.227Z,37.58
2022-08-12T11:43:19.855Z,37.84
2022-08-12T11:48:27.129Z,38.17
2022-08-12T11:53:57.263Z,38.10
2022-08-12T12:02:01.679Z,37.73
2022-08-12T12:04:28.939Z,37.94
2022-08-12T12:09:52.535Z,37.48
2022-08-12T12:15:03.187Z,37.67
2022-08-12T12:20:14.640Z,37.58
2022-08-12T12:26:07.551Z,37.43
2022-08-12T12:30:54.685Z,37.36
2022-08-12T12:36:18.630Z,36.49
2022-08-12T12:42:42.021Z,36.60
2022-08-12T12:46:52.885Z,36.66
2022-08-12T12:52:19.606Z,36.73
2022-08-12T12:57:36.230Z,35.70
2022-08-12T13:02:55.805Z,35.99
2022-08-12T13:08:04.184Z,35.81
2022-08-12T13:14:09.249Z,34.30
2022-08-12T13:18:39.465Z,34.82
2022-08-12T13:23:48.062Z,33.55
2022-08-12T13:28:56.748Z,34.54
2022-08-12T13:39:30.313Z,34.63
2022-08-12T13:44:37.711Z,34.33
2022-08-12T13:49:54.858Z,33.42
2022-08-12T13:55:06.190Z,33.11
2022-08-12T14:00:15.565Z,33.51
2022-08-12T14:05:37.982Z,34.08
2022-08-12T14:10:50.462Z,33.37
2022-08-12T14:16:01.498Z,33.91
2022-08-12T14:21:18.190Z,33.71
2022-08-12T14:26:28.854Z,33.43
2022-08-12T14:31:43.087Z,33.62
2022-08-12T14:36:48.071Z,32.98
2022-08-12T14:41:57.409Z,33.76
2022-08-12T14:47:07.709Z,33.79
2022-08-12T14:53:50.650Z,33.34
2022-08-12T14:57:56.548Z,32.57
2022-08-12T15:03:06.356Z,32.98
2022-08-12T15:08:17.107Z,32.50
2022-08-12T15:13:27.872Z,33.28
2022-08-12T15:18:36.442Z,33.69
2022-08-12T15:23:54.858Z,33.28
2022-08-12T15:29:00.545Z,33.31
2022-08-12T15:34:09.103Z,32.46
2022-08-12T15:39:16.752Z,32.82
2022-08-12T15:44:38.654Z,31.87
2022-08-12T15:50:00.147Z,31.00
2022-08-12T15:55:11.641Z,31.31
2022-08-12T16:00:31.614Z,31.67
2022-08-12T16:06:19.435Z,32.73
2022-08-12T16:11:14.755Z,32.74
2022-08-12T16:16:23.717Z,32.94
2022-08-12T16:21:52.719Z,32.90
2022-08-12T16:26:57.368Z,32.60
2022-08-12T16:32:06.407Z,32.66
2022-08-12T16:37:15.792Z,32.32
2022-08-12T16:42:22.698Z,32.48
2022-08-12T16:47:43.907Z,32.35
2022-08-12T16:53:03.319Z,32.56
2022-08-12T16:58:28.341Z,32.46
2022-08-12T17:03:37.780Z,32.90
2022-08-12T17:08:55.226Z,32.21
2022-08-12T17:14:01.730Z,33.90
2022-08-12T17:19:09.186Z,34.59
2022-08-12T17:24:22.473Z,34.47
2022-08-12T17:30:00.888Z,34.96
2022-08-12T17:35:16.390Z,35.22
2022-08-12T17:40:35.243Z,35.55
2022-08-12T17:45:47.330Z,35.62
2022-08-12T17:50:53.930Z,36.12
2022-08-12T17:56:03.021Z,36.98
2022-08-12T18:01:11.455Z,36.97
2022-08-12T18:06:16.352Z,37.66
2022-08-12T18:12:03.870Z,38.12
2022-08-12T18:17:02.698Z,38.84
2022-08-12T18:22:08.030Z,39.48
2022-08-12T18:27:30.196Z,39.89
2022-08-12T18:32:58.294Z,40.59
2022-08-12T18:38:05.677Z,40.47
2022-08-12T18:43:16.784Z,41.41
2022-08-12T18:48:23.719Z,41.54
2022-08-12T18:54:07.374Z,42.28
2022-08-12T18:58:59.430Z,42.79
2022-08-12T19:04:06.919Z,43.08
2022-08-12T19:09:15.576Z,43.94
2022-08-12T19:14:29.661Z,44.08
2022-08-12T19:19:41.568Z,44.54
2022-08-12T19:24:59.701Z,44.65
2022-08-12T19:30:08.988Z,44.52
2022-08-12T19:40:40.384Z,45.56
2022-08-12T19:45:56.668Z,46.21
2022-08-12T19:51:22.761Z,46.89
2022-08-12T19:56:28.320Z,46.90
2022-08-12T20:02:01.697Z,47.72
2022-08-12T20:07:05.444Z,48.04
2022-08-12T20:12:18.057Z,49.04
2022-08-12T20:17:36.179Z,49.61
2022-08-12T20:29:04.240Z,50.31
2022-08-12T20:34:19.439Z,51.13
2022-08-12T20:39:52.314Z,52.45
2022-08-12T20:44:49.831Z,53.15
2022-08-12T20:50:00.150Z,53.17
2022-08-12T20:55:15.362Z,53.68
2022-08-12T21:00:28.395Z,55.14
2022-08-12T21:06:12.281Z,55.76
2022-08-12T21:11:13.063Z,56.46
2022-08-12T21:16:35.367Z,58.06
2022-08-12T21:21:50.215Z,58.48
2022-08-12T21:27:03.351Z,60.27
2022-08-12T21:32:36.574Z,60.77
2022-08-12T21:37:41.651Z,62.02
2022-08-12T21:42:47.445Z,63.04
2022-08-12T21:47:53.546Z,65.94
2022-08-12T21:53:10.031Z,66.67
2022-08-12T21:58:21.241Z,66.71
2022-08-12T22:04:03.023Z,70.10
2022-08-12T22:09:16.006Z,73.91
2022-08-12T22:14:24.983Z,73.28
2022-08-12T22:19:33.635Z,74.50
2022-08-12T22:24:44.185Z,76.27
2022-08-12T22:30:02.925Z,78.77
2022-08-12T22:35:23.338Z,79.59
2022-08-12T22:40:36.330Z,82.07
2022-08-12T22:45:56.494Z,83.68
2022-08-12T22:51:03.801Z,86.43
2022-08-12T22:56:14.614Z,87.21
2022-08-12T23:01:28.636Z,89.23
2022-08-12T23:06:48.540Z,89.68
2022-08-12T23:12:02.361Z,91.15
2022-08-12T23:17:35.199Z,92.50
2022-08-12T23:22:36.281Z,94.40
2022-08-12T23:27:59.957Z,96.56
2022-08-12T23:33:20.058Z,96.53
2022-08-12T23:38:31.658Z,100.00
2022-08-12T23:43:42.915Z,97.72
2022-08-12T23:48:56.892Z,100.00
2022-08-12T23:54:07.430Z,100.00
2022-08-12T23:59:16.670Z,100.00
